Time;durP1;ratioP1;P1;durP2;ratioP2;P2;SDS_P1;SDS_P2;PMS_P1;PMS_P2;Temp;Humidity;BMP_temperature;BMP_pressure;BME280_temperature;BME280_humidity;BME280_pressure;Samples;Min_cycle;Max_cycle;Signal;HPM_P1;HPM_P2
2021/12/31 00:00:20;;;;;;;2.20;1.17;;;;;;;9.45;97.09;96228.69;6076802;23;20170;-84
2021/12/31 00:02:45;;;;;;;2.10;1.30;;;;;;;9.42;97.27;96226.34;6123930;23;20509;-84
2021/12/31 00:05:11;;;;;;;1.70;1.30;;;;;;;9.42;96.93;96233.31;6124427;23;20521;-84
2021/12/31 00:07:36;;;;;;;2.30;1.33;;;;;;;9.45;96.76;96233.03;6099777;23;20661;-83
2021/12/31 00:10:03;;;;;;;2.13;1.20;;;;;;;9.42;97.09;96233.31;6100346;23;20179;-83
2021/12/31 00:12:29;;;;;;;3.67;1.23;;;;;;;9.39;97.55;96231.78;6099166;23;20160;-84
2021/12/31 00:14:54;;;;;;;1.87;1.47;;;;;;;9.40;97.41;96237.81;6099837;23;20606;-83
2021/12/31 00:17:20;;;;;;;1.43;1.20;;;;;;;9.38;97.55;96230.16;6124101;23;20227;-83
2021/12/31 00:19:47;;;;;;;2.17;1.20;;;;;;;9.37;97.31;96236.28;6124212;23;20629;-83
2021/12/31 00:22:44;;;;;;;1.80;1.20;;;;;;;9.31;97.70;96229.81;6098952;23;20630;-83
2021/12/31 00:25:04;;;;;;;1.40;1.23;;;;;;;9.31;97.83;96234.19;6104854;23;20163;-81
2021/12/31 00:27:32;;;;;;;1.83;1.37;;;;;;;9.32;97.63;96241.00;6099045;23;20616;-81
2021/12/31 00:29:57;;;;;;;1.47;1.00;;;;;;;9.31;97.49;96231.59;6123798;23;20152;-82
2021/12/31 00:32:23;;;;;;;5.23;1.50;;;;;;;9.32;97.65;96234.03;6121792;23;20240;-81
2021/12/31 00:34:48;;;;;;;1.30;1.20;;;;;;;9.30;97.32;96233.34;6112253;23;20168;-83
2021/12/31 00:37:27;;;;;;;1.43;1.33;;;;;;;9.34;97.06;96233.91;6125045;23;20155;-84
2021/12/31 00:39:52;;;;;;;1.73;1.30;;;;;;;9.31;97.06;96224.63;6143913;23;20223;-84
2021/12/31 00:42:17;;;;;;;3.00;1.23;;;;;;;9.31;96.82;96232.41;6077549;23;20182;-84
2021/12/31 00:44:43;;;;;;;1.37;1.13;;;;;;;9.28;96.88;96231.84;6126418;23;20203;-84
2021/12/31 00:47:08;;;;;;;3.87;1.40;;;;;;;9.34;96.60;96231.31;6126646;23;20184;-83
2021/12/31 00:49:33;;;;;;;2.23;1.10;;;;;;;9.30;96.34;96225.56;6126421;23;20160;-84
2021/12/31 00:52:02;;;;;;;1.80;1.10;;;;;;;9.26;96.64;96229.34;6125469;23;20160;-84
2021/12/31 00:54:27;;;;;;;2.10;1.23;;;;;;;9.25;96.30;96230.28;6127318;23;20160;-84
2021/12/31 00:57:02;;;;;;;1.27;1.00;;;;;;;9.26;96.51;96231.94;6125227;23;20283;-84
2021/12/31 00:59:27;;;;;;;2.83;1.73;;;;;;;9.24;96.46;96233.00;6102754;23;20150;-83
2021/12/31 01:01:52;;;;;;;2.93;1.30;;;;;;;9.23;96.06;96224.41;6075156;23;20200;-81
2021/12/31 01:04:18;;;;;;;1.70;1.13;;;;;;;9.24;96.68;96225.25;6125274;23;20530;-82
2021/12/31 01:06:43;;;;;;;2.87;1.33;;;;;;;9.15;96.58;96218.19;6100142;23;20219;-81
2021/12/31 01:09:08;;;;;;;1.57;1.20;;;;;;;9.17;96.64;96224.06;6124859;23;20167;-84
2021/12/31 01:11:34;;;;;;;2.13;1.07;;;;;;;9.10;96.83;96223.75;6123613;23;20584;-81
2021/12/31 01:14:03;;;;;;;2.30;1.30;;;;;;;9.13;96.96;96220.09;6126092;23;20163;-81
2021/12/31 01:16:37;;;;;;;1.37;1.00;;;;;;;9.04;97.10;96226.84;6124834;23;20175;-82
2021/12/31 01:21:31;;;;;;;3.33;1.10;;;;;;;8.90;97.61;96227.09;6099075;23;20184;-82
2021/12/31 01:23:58;;;;;;;2.33;1.30;;;;;;;8.85;97.37;96222.28;6099661;23;20307;-82
2021/12/31 01:26:24;;;;;;;1.67;1.20;;;;;;;8.83;97.70;96231.09;6129626;23;20179;-82
2021/12/31 01:28:49;;;;;;;3.73;1.60;;;;;;;8.78;98.68;96231.47;6108775;23;20232;-82
2021/12/31 01:31:14;;;;;;;1.23;1.13;;;;;;;8.83;98.66;96237.09;6124951;23;20153;-84
2021/12/31 01:33:39;;;;;;;1.63;1.40;;;;;;;8.82;98.88;96237.22;6125557;23;20539;-81
2021/12/31 01:36:05;;;;;;;1.37;1.17;;;;;;;8.80;99.30;96243.34;6100155;23;20188;-81
2021/12/31 01:38:31;;;;;;;4.70;2.00;;;;;;;8.78;99.34;96247.00;6124446;23;20160;-84
2021/12/31 01:40:56;;;;;;;2.87;1.17;;;;;;;8.78;100.00;96244.41;6124071;23;20498;-84
2021/12/31 01:43:21;;;;;;;3.67;1.67;;;;;;;8.67;100.00;96242.66;6074729;23;20594;-83
2021/12/31 01:45:54;;;;;;;2.03;1.67;;;;;;;8.67;100.00;96240.09;6123692;23;20175;-83
2021/12/31 01:50:49;;;;;;;1.40;1.30;;;;;;;8.61;100.00;96237.97;6125205;23;20543;-82
2021/12/31 01:53:15;;;;;;;1.83;1.43;;;;;;;8.46;100.00;96244.31;6124105;23;20167;-83
2021/12/31 01:55:40;;;;;;;2.33;1.17;;;;;;;8.38;100.00;96242.28;6124886;23;20180;-83
2021/12/31 01:58:07;;;;;;;3.47;1.60;;;;;;;8.27;100.00;96233.69;6124887;23;20155;-83
2021/12/31 02:00:36;;;;;;;2.80;1.60;;;;;;;8.24;100.00;96229.56;6124684;23;20156;-83
2021/12/31 02:03:01;;;;;;;1.63;1.40;;;;;;;8.15;100.00;96241.44;6123849;23;20178;-83
2021/12/31 02:05:27;;;;;;;1.93;1.27;;;;;;;8.06;100.00;96236.97;6124781;23;20239;-82
2021/12/31 02:07:53;;;;;;;3.27;1.80;;;;;;;8.05;100.00;96235.31;6124438;23;20217;-83
2021/12/31 02:10:19;;;;;;;3.60;1.83;;;;;;;7.97;100.00;96237.66;6124387;23;20258;-83
2021/12/31 02:12:46;;;;;;;3.67;1.93;;;;;;;7.99;100.00;96234.94;6099426;23;20156;-83
2021/12/31 02:15:13;;;;;;;2.20;2.00;;;;;;;7.96;100.00;96236.00;6099995;23;20468;-82
2021/12/31 02:17:38;;;;;;;3.07;1.93;;;;;;;7.89;100.00;96234.81;6099263;23;20506;-83
2021/12/31 02:20:06;;;;;;;1.93;1.30;;;;;;;7.85;100.00;96233.38;6125206;23;20194;-82
2021/12/31 02:22:35;;;;;;;2.83;1.90;;;;;;;7.84;100.00;96229.16;6098710;23;20180;-83
2021/12/31 02:25:01;;;;;;;1.63;1.53;;;;;;;7.75;100.00;96220.31;6075268;23;20174;-83
2021/12/31 02:27:26;;;;;;;2.90;1.93;;;;;;;7.71;100.00;96221.50;6099489;23;20176;-82
2021/12/31 02:29:52;;;;;;;2.80;1.97;;;;;;;7.70;100.00;96216.44;6099181;23;20167;-83
2021/12/31 02:32:18;;;;;;;4.57;1.70;;;;;;;7.65;100.00;96219.34;6097459;23;20155;-83
2021/12/31 02:34:44;;;;;;;3.27;1.70;;;;;;;7.58;100.00;96218.97;6123657;23;20167;-83
2021/12/31 02:37:09;;;;;;;2.80;1.80;;;;;;;7.64;100.00;96215.13;6099058;23;20211;-83
2021/12/31 02:39:38;;;;;;;2.10;1.83;;;;;;;7.61;100.00;96218.75;6123458;23;20156;-82
2021/12/31 02:42:05;;;;;;;3.10;1.93;;;;;;;7.59;100.00;96218.03;6098852;23;20195;-83
2021/12/31 02:44:30;;;;;;;3.70;1.47;;;;;;;7.53;100.00;96217.69;6099051;23;20164;-82
2021/12/31 02:46:55;;;;;;;2.63;1.67;;;;;;;7.49;100.00;96213.66;6098937;23;20176;-82
2021/12/31 02:49:24;;;;;;;2.80;1.60;;;;;;;7.49;100.00;96211.88;6123317;23;20637;-82
2021/12/31 02:51:49;;;;;;;2.20;1.80;;;;;;;7.52;100.00;96200.53;6122021;23;20160;-82
2021/12/31 02:54:15;;;;;;;1.50;1.40;;;;;;;7.50;100.00;96210.13;6099045;23;20619;-82
2021/12/31 02:56:41;;;;;;;3.10;1.70;;;;;;;7.43;100.00;96207.19;6098928;23;20183;-82
2021/12/31 02:59:07;;;;;;;2.67;1.60;;;;;;;7.44;100.00;96200.25;6126926;23;20156;-83
2021/12/31 03:01:33;;;;;;;2.77;1.70;;;;;;;7.47;100.00;96200.84;6135660;23;20199;-83
2021/12/31 03:03:59;;;;;;;2.73;1.60;;;;;;;7.38;100.00;96204.09;6103050;23;20625;-83
2021/12/31 03:06:24;;;;;;;2.23;2.00;;;;;;;7.37;100.00;96189.53;6101522;23;20660;-83
2021/12/31 03:08:52;;;;;;;2.03;1.60;;;;;;;7.42;100.00;96190.03;6125433;23;20160;-83
2021/12/31 03:11:21;;;;;;;1.83;1.70;;;;;;;7.40;100.00;96194.47;6099779;23;20152;-83
2021/12/31 03:13:51;;;;;;;5.37;1.80;;;;;;;7.36;100.00;96198.22;6101109;23;20606;-83
2021/12/31 03:16:19;;;;;;;1.80;1.50;;;;;;;7.38;100.00;96201.53;6077066;23;20175;-83
2021/12/31 03:18:44;;;;;;;2.90;1.57;;;;;;;7.35;100.00;96200.00;6076483;23;20190;-83
2021/12/31 03:21:20;;;;;;;3.17;1.80;;;;;;;7.35;100.00;96199.16;6124142;23;20160;-83
2021/12/31 03:23:45;;;;;;;2.93;1.90;;;;;;;7.33;100.00;96201.88;6124600;23;20244;-83
2021/12/31 03:26:11;;;;;;;2.87;1.53;;;;;;;7.31;100.00;96197.72;6100028;23;20187;-83
2021/12/31 03:28:36;;;;;;;2.83;2.00;;;;;;;7.26;100.00;96194.69;6124089;23;20602;-84
2021/12/31 03:31:01;;;;;;;2.10;1.60;;;;;;;7.22;100.00;96201.81;6124090;23;20152;-83
2021/12/31 03:33:27;;;;;;;4.87;1.87;;;;;;;7.21;100.00;96201.91;6121844;23;20160;-82
2021/12/31 03:35:52;;;;;;;3.00;1.53;;;;;;;7.14;100.00;96200.72;6123635;23;20588;-84
2021/12/31 03:38:17;;;;;;;1.60;1.40;;;;;;;7.15;100.00;96205.75;6123981;23;20152;-83
2021/12/31 03:40:43;;;;;;;1.77;1.40;;;;;;;7.04;100.00;96203.94;6123855;23;20243;-83
2021/12/31 03:43:08;;;;;;;1.90;1.60;;;;;;;7.03;100.00;96198.91;6122587;23;20243;-83
2021/12/31 03:45:34;;;;;;;2.70;1.47;;;;;;;6.99;100.00;96198.31;6124034;23;20613;-83
2021/12/31 03:48:00;;;;;;;4.40;1.83;;;;;;;6.96;100.00;96197.69;6123432;23;20140;-83
2021/12/31 03:50:25;;;;;;;2.60;1.70;;;;;;;6.91;100.00;96202.38;6150454;23;20172;-84
2021/12/31 03:52:50;;;;;;;2.63;1.90;;;;;;;6.93;100.00;96198.75;6134329;23;20179;-84
2021/12/31 03:55:16;;;;;;;2.40;1.50;;;;;;;6.85;100.00;96202.81;6126609;23;20195;-84
2021/12/31 03:57:41;;;;;;;2.30;1.70;;;;;;;6.82;100.00;96206.44;6101405;23;20215;-83
2021/12/31 04:00:08;;;;;;;1.90;1.60;;;;;;;6.82;100.00;96206.44;6101492;23;20598;-83
2021/12/31 04:02:34;;;;;;;2.00;1.63;;;;;;;6.74;100.00;96203.56;6100188;23;20204;-83
2021/12/31 04:05:00;;;;;;;2.60;1.80;;;;;;;6.74;100.00;96199.22;6077191;23;20206;-83
2021/12/31 04:07:25;;;;;;;2.80;1.60;;;;;;;6.75;100.00;96200.03;6125619;23;20176;-83
2021/12/31 04:09:51;;;;;;;3.10;1.47;;;;;;;6.72;100.00;96205.44;6077145;23;20180;-83
2021/12/31 04:12:17;;;;;;;1.50;1.40;;;;;;;6.62;100.00;96200.06;6123925;23;20695;-83
2021/12/31 04:14:42;;;;;;;2.00;1.60;;;;;;;6.62;100.00;96192.31;6124701;23;20524;-83
2021/12/31 04:17:07;;;;;;;2.53;1.80;;;;;;;6.59;100.00;96196.88;6125260;23;20610;-83
2021/12/31 04:19:33;;;;;;;2.47;1.87;;;;;;;6.57;100.00;96191.84;6124933;23;20496;-83
2021/12/31 04:21:58;;;;;;;3.40;1.67;;;;;;;6.55;100.00;96185.97;6124050;23;20225;-83
2021/12/31 04:27:08;;;;;;;1.77;1.60;;;;;;;6.53;100.00;96180.88;6125054;23;20736;-83
2021/12/31 04:29:33;;;;;;;2.77;1.57;;;;;;;6.53;100.00;96175.72;6076189;23;20163;-83
2021/12/31 04:32:00;;;;;;;2.80;1.70;;;;;;;6.49;100.00;96182.06;6098680;23;20163;-83
2021/12/31 04:34:26;;;;;;;3.13;1.50;;;;;;;6.45;100.00;96170.31;6132132;23;20171;-84
2021/12/31 04:36:51;;;;;;;2.10;1.43;;;;;;;6.46;100.00;96174.53;6131531;23;20356;-84
2021/12/31 04:39:16;;;;;;;1.77;1.47;;;;;;;6.45;100.00;96172.88;6076307;23;20202;-83
2021/12/31 04:41:42;;;;;;;2.90;1.70;;;;;;;6.42;100.00;96178.25;6124322;23;20344;-83
2021/12/31 04:44:07;;;;;;;1.90;1.57;;;;;;;6.38;100.00;96174.25;6124313;23;20501;-83
2021/12/31 04:46:32;;;;;;;2.23;1.47;;;;;;;6.43;100.00;96169.56;6124350;23;20194;-83
2021/12/31 04:48:58;;;;;;;3.00;1.50;;;;;;;6.40;100.00;96168.97;6124236;23;20152;-83
2021/12/31 04:51:26;;;;;;;2.13;1.37;;;;;;;6.43;100.00;96179.88;6099140;23;20669;-83
2021/12/31 04:53:51;;;;;;;2.13;1.50;;;;;;;6.42;100.00;96170.50;6124077;23;20376;-83
2021/12/31 04:56:17;;;;;;;2.60;1.60;;;;;;;6.43;100.00;96171.31;6123683;23;20211;-83
2021/12/31 04:58:42;;;;;;;2.37;1.87;;;;;;;6.42;100.00;96167.09;6123630;23;20326;-83
2021/12/31 05:01:07;;;;;;;5.90;1.70;;;;;;;6.44;100.00;96163.47;6122975;23;20171;-83
2021/12/31 05:03:33;;;;;;;3.33;2.03;;;;;;;6.46;100.00;96163.38;6122701;23;20160;-83
2021/12/31 05:05:58;;;;;;;2.40;1.53;;;;;;;6.49;100.00;96165.75;6123113;23;20176;-83
2021/12/31 05:08:23;;;;;;;3.57;1.47;;;;;;;6.47;100.00;96171.03;6123415;23;20206;-83
2021/12/31 05:10:48;;;;;;;4.60;1.93;;;;;;;6.48;100.00;96167.50;6123523;23;20622;-83
2021/12/31 05:13:15;;;;;;;2.20;1.47;;;;;;;6.52;100.00;96168.09;6122133;23;20160;-83
2021/12/31 05:15:45;;;;;;;3.83;1.80;;;;;;;6.56;100.00;96172.13;6123232;23;20183;-83
2021/12/31 05:18:11;;;;;;;4.33;1.90;;;;;;;6.59;100.00;96173.66;6099867;23;20160;-83
2021/12/31 05:20:37;;;;;;;3.37;1.57;;;;;;;6.60;100.00;96183.03;6123077;23;20156;-82
2021/12/31 05:23:02;;;;;;;2.37;1.67;;;;;;;6.56;100.00;96179.06;6097689;23;20187;-83
2021/12/31 05:25:27;;;;;;;2.87;1.40;;;;;;;6.59;100.00;96178.81;6124114;23;20163;-83
2021/12/31 05:27:54;;;;;;;2.40;1.50;;;;;;;6.58;100.00;96165.09;6124180;23;20156;-82
2021/12/31 05:30:20;;;;;;;2.10;1.90;;;;;;;6.62;100.00;96163.13;6124277;23;20202;-82
2021/12/31 05:32:45;;;;;;;1.73;1.57;;;;;;;6.59;100.00;96165.91;6122082;23;20474;-82
2021/12/31 05:35:11;;;;;;;1.97;1.80;;;;;;;6.59;100.00;96159.00;6124227;23;20244;-82
2021/12/31 05:37:36;;;;;;;2.90;1.87;;;;;;;6.60;100.00;96155.47;6124106;23;20180;-82
2021/12/31 05:40:02;;;;;;;1.60;1.50;;;;;;;6.65;100.00;96153.41;6125585;23;20152;-83
2021/12/31 05:42:27;;;;;;;3.23;1.50;;;;;;;6.61;100.00;96146.81;6099060;23;20689;-82
2021/12/31 05:44:53;;;;;;;2.90;1.53;;;;;;;6.56;100.00;96137.75;6123881;23;20175;-82
2021/12/31 05:47:18;;;;;;;2.10;1.70;;;;;;;6.52;100.00;96139.72;6123724;23;20559;-82
2021/12/31 05:49:43;;;;;;;2.47;1.67;;;;;;;6.45;100.00;96139.34;6124283;23;20164;-83
2021/12/31 05:52:09;;;;;;;2.20;2.00;;;;;;;6.42;100.00;96147.28;6123414;23;20156;-82
2021/12/31 05:54:34;;;;;;;2.47;1.47;;;;;;;6.38;100.00;96155.34;6099366;23;20640;-82
2021/12/31 05:56:59;;;;;;;2.23;1.90;;;;;;;6.40;100.00;96164.63;6124044;23;20179;-82
2021/12/31 05:59:25;;;;;;;2.93;1.67;;;;;;;6.39;100.00;96159.59;6123874;23;20606;-83
2021/12/31 06:01:50;;;;;;;4.97;1.70;;;;;;;6.44;100.00;96163.47;6098717;23;20227;-82
2021/12/31 06:04:16;;;;;;;2.67;1.53;;;;;;;6.39;100.00;96159.59;6123968;23;20159;-82
2021/12/31 06:06:42;;;;;;;1.57;1.40;;;;;;;6.42;100.00;96159.34;6123536;23;20179;-82
2021/12/31 06:09:08;;;;;;;2.20;1.40;;;;;;;6.38;100.00;96158.75;6099556;23;20673;-83
2021/12/31 06:11:33;;;;;;;5.07;2.00;;;;;;;6.45;100.00;96157.41;6123103;23;20152;-82
2021/12/31 06:14:03;;;;;;;2.70;1.50;;;;;;;6.45;100.00;96152.25;6123889;23;20219;-82
2021/12/31 06:16:33;;;;;;;1.60;1.30;;;;;;;6.43;100.00;96146.34;6100693;23;20172;-82
2021/12/31 06:18:58;;;;;;;3.67;1.50;;;;;;;6.40;100.00;96149.16;6075557;23;20658;-82
2021/12/31 06:21:23;;;;;;;3.23;1.40;;;;;;;6.41;100.00;96153.38;6122848;23;20207;-82
2021/12/31 06:23:49;;;;;;;2.77;1.60;;;;;;;6.43;100.00;96151.50;6123840;23;20156;-82
2021/12/31 06:26:14;;;;;;;1.97;1.50;;;;;;;6.41;100.00;96153.38;6123491;23;20176;-83
2021/12/31 06:28:39;;;;;;;3.40;1.57;;;;;;;6.49;100.00;96147.69;6123523;23;20614;-82
2021/12/31 06:31:05;;;;;;;1.87;1.50;;;;;;;6.45;100.00;96149.66;6099270;23;20170;-83
2021/12/31 06:33:32;;;;;;;2.60;1.67;;;;;;;6.52;100.00;96153.44;6121687;23;20156;-82
2021/12/31 06:35:58;;;;;;;2.50;1.70;;;;;;;6.51;100.00;96154.38;6099117;23;20695;-82
2021/12/31 06:38:23;;;;;;;2.53;1.80;;;;;;;6.47;100.00;96159.88;6123646;23;20396;-82
2021/12/31 06:40:48;;;;;;;3.53;1.70;;;;;;;6.45;100.00;96147.09;6123688;23;20160;-83
2021/12/31 06:43:14;;;;;;;2.07;1.50;;;;;;;6.44;100.00;96150.56;6122791;23;20190;-82
2021/12/31 06:45:39;;;;;;;2.03;1.53;;;;;;;6.39;100.00;96150.09;6099175;23;20186;-82
2021/12/31 06:48:05;;;;;;;3.73;1.53;;;;;;;6.40;100.00;96156.88;6125059;23;20155;-82
2021/12/31 06:50:30;;;;;;;3.23;1.63;;;;;;;6.38;100.00;96165.69;6099164;23;20187;-81
2021/12/31 06:52:55;;;;;;;2.00;1.43;;;;;;;6.36;100.00;96165.78;6122822;23;20490;-83
2021/12/31 06:55:21;;;;;;;1.97;1.60;;;;;;;6.25;100.00;96163.09;6123522;23;20159;-82
2021/12/31 06:57:47;;;;;;;1.60;1.50;;;;;;;6.20;100.00;96158.28;6124914;23;20172;-82
2021/12/31 07:00:12;;;;;;;3.43;1.73;;;;;;;6.15;100.00;96175.00;6151319;23;20175;-83
2021/12/31 07:02:38;;;;;;;2.50;1.87;;;;;;;6.16;100.00;96176.63;6121057;23;20215;-83
2021/12/31 07:05:03;;;;;;;3.13;1.60;;;;;;;6.22;100.00;96181.38;6077913;23;20206;-83
2021/12/31 07:07:28;;;;;;;5.17;1.63;;;;;;;6.17;100.00;96179.09;6074483;23;20642;-84
2021/12/31 07:09:54;;;;;;;2.20;1.90;;;;;;;6.10;100.00;96170.16;6099152;23;20164;-83
2021/12/31 07:12:19;;;;;;;4.13;1.60;;;;;;;6.13;100.00;96174.28;6072312;23;20161;-83
2021/12/31 07:14:44;;;;;;;3.53;2.00;;;;;;;6.11;100.00;96173.56;6097440;23;20630;-83
2021/12/31 07:17:10;;;;;;;4.23;3.23;;;;;;;6.06;100.00;96168.72;6072807;23;20248;-84
2021/12/31 07:19:35;;;;;;;2.90;2.57;;;;;;;6.05;100.00;96179.13;6073278;23;20156;-83
2021/12/31 07:22:01;;;;;;;3.23;2.73;;;;;;;6.07;100.00;96166.94;6097636;23;20188;-83
2021/12/31 07:24:26;;;;;;;2.50;2.30;;;;;;;6.17;100.00;96158.47;6072729;23;20163;-83
2021/12/31 07:26:51;;;;;;;3.03;1.57;;;;;;;6.26;100.00;96164.75;6072499;23;20181;-82
2021/12/31 07:29:17;;;;;;;3.27;1.90;;;;;;;6.27;100.00;96158.66;6072219;23;20607;-83
2021/12/31 07:31:42;;;;;;;5.33;1.90;;;;;;;6.28;100.00;96152.59;6093517;23;20145;-83
2021/12/31 07:34:07;;;;;;;3.07;2.30;;;;;;;6.36;100.00;96152.88;6072041;23;20161;-83
2021/12/31 07:36:33;;;;;;;3.57;2.63;;;;;;;6.33;100.00;96160.00;6072229;23;20188;-83
2021/12/31 07:39:05;;;;;;;2.97;2.50;;;;;;;6.38;100.00;96161.34;6096527;23;20540;-83
2021/12/31 07:41:30;;;;;;;3.83;2.00;;;;;;;6.41;100.00;96165.44;6071024;23;20180;-83
2021/12/31 07:43:56;;;;;;;2.60;2.27;;;;;;;6.42;100.00;96169.69;6095829;23;20157;-83
2021/12/31 07:46:21;;;;;;;4.53;2.23;;;;;;;6.39;100.00;96175.88;6071134;23;20180;-83
2021/12/31 07:48:46;;;;;;;2.50;2.30;;;;;;;6.36;100.00;96177.84;6071412;23;20164;-83
2021/12/31 07:51:12;;;;;;;2.63;2.10;;;;;;;6.37;100.00;96174.34;6070243;23;20157;-83
2021/12/31 07:53:37;;;;;;;4.80;2.20;;;;;;;6.37;100.00;96170.00;6070921;23;20188;-83
2021/12/31 07:56:03;;;;;;;4.27;2.70;;;;;;;6.41;100.00;96174.00;6095540;23;20184;-83
2021/12/31 07:58:28;;;;;;;4.37;2.73;;;;;;;6.46;100.00;96181.44;6071717;23;20186;-83
2021/12/31 08:00:53;;;;;;;2.80;2.53;;;;;;;6.47;100.00;96178.75;6050028;23;20670;-83
2021/12/31 08:03:19;;;;;;;4.23;2.50;;;;;;;6.47;100.00;96177.94;6070342;23;20185;-83
2021/12/31 08:05:44;;;;;;;2.40;1.80;;;;;;;6.53;100.00;96182.66;6094945;23;20180;-83
2021/12/31 08:08:09;;;;;;;3.17;1.80;;;;;;;6.47;100.00;96185.69;6094627;23;20168;-84
2021/12/31 08:10:35;;;;;;;2.87;2.30;;;;;;;6.61;100.00;96189.84;6095115;23;20161;-83
2021/12/31 08:13:01;;;;;;;2.90;2.07;;;;;;;6.68;100.00;96194.47;6094187;23;20160;-83
2021/12/31 08:15:27;;;;;;;4.13;2.47;;;;;;;6.62;100.00;96194.06;6118826;23;20194;-83
2021/12/31 08:17:56;;;;;;;4.90;2.00;;;;;;;6.67;100.00;96198.00;6118830;23;20164;-83
2021/12/31 08:20:22;;;;;;;2.33;1.90;;;;;;;6.69;100.00;96203.88;6118609;23;20663;-83
2021/12/31 08:22:47;;;;;;;3.03;1.80;;;;;;;6.73;100.00;96207.09;6117806;23;20184;-83
2021/12/31 08:25:13;;;;;;;3.00;2.20;;;;;;;6.72;100.00;96197.69;6118909;23;20160;-83
2021/12/31 08:27:38;;;;;;;2.90;1.97;;;;;;;6.81;100.00;96194.47;6093793;23;20260;-83
2021/12/31 08:30:04;;;;;;;4.20;1.83;;;;;;;6.89;100.00;96196.47;6070014;23;20195;-83
2021/12/31 08:32:30;;;;;;;4.67;1.83;;;;;;;6.94;100.00;96194.41;6116162;23;20164;-82
2021/12/31 08:34:55;;;;;;;2.37;1.70;;;;;;;6.96;100.00;96185.59;6094435;23;20199;-83
2021/12/31 08:37:20;;;;;;;3.60;2.00;;;;;;;7.00;100.00;96184.47;6094105;23;20188;-83
2021/12/31 08:39:45;;;;;;;4.13;2.13;;;;;;;7.06;100.00;96185.75;6093565;23;20160;-83
2021/12/31 08:42:11;;;;;;;3.43;1.97;;;;;;;7.13;100.00;96181.81;6092265;23;20207;-83
2021/12/31 08:44:36;;;;;;;3.37;1.87;;;;;;;7.21;100.00;96178.66;6093118;23;20160;-83
2021/12/31 08:47:01;;;;;;;3.10;1.80;;;;;;;7.29;100.00;96174.59;6093001;23;20208;-83
2021/12/31 08:49:27;;;;;;;3.07;1.83;;;;;;;7.35;100.00;96173.34;6069328;23;20192;-83
2021/12/31 08:51:52;;;;;;;2.93;1.93;;;;;;;7.45;100.00;96174.31;6092611;23;20519;-83
2021/12/31 08:54:17;;;;;;;2.30;2.10;;;;;;;7.51;100.00;96163.53;6093717;23;20153;-83
2021/12/31 08:56:43;;;;;;;2.00;1.60;;;;;;;7.61;100.00;96154.13;6093457;23;20180;-83
2021/12/31 08:59:09;;;;;;;3.07;1.83;;;;;;;7.61;100.00;96158.50;6092818;23;20157;-83
2021/12/31 09:01:35;;;;;;;4.47;1.80;;;;;;;7.67;100.00;96158.84;6110499;23;20183;-83
2021/12/31 09:04:00;;;;;;;3.57;1.80;;;;;;;7.72;100.00;96163.66;6074083;23;20184;-83
2021/12/31 09:06:25;;;;;;;2.90;2.10;;;;;;;7.76;100.00;96166.84;6122206;23;20179;-83
2021/12/31 09:08:50;;;;;;;3.57;1.93;;;;;;;7.80;100.00;96158.75;6122467;23;20168;-83
2021/12/31 09:11:16;;;;;;;3.17;2.20;;;;;;;7.85;100.00;96148.03;6121737;23;20513;-83
2021/12/31 09:13:42;;;;;;;3.63;2.53;;;;;;;7.88;100.00;96158.16;6098014;23;20159;-82
2021/12/31 09:16:10;;;;;;;3.47;2.30;;;;;;;7.90;100.00;96153.69;6122441;23;20171;-83
2021/12/31 09:18:36;;;;;;;2.63;1.93;;;;;;;7.97;100.00;96147.13;6097823;23;20247;-83
2021/12/31 09:21:01;;;;;;;3.83;1.87;;;;;;;7.99;100.00;96150.41;6098690;23;20196;-83
2021/12/31 09:23:27;;;;;;;2.50;1.97;;;;;;;8.08;100.00;96139.38;6097263;23;20184;-83
2021/12/31 09:25:52;;;;;;;3.83;1.77;;;;;;;8.02;100.00;96142.41;6121997;23;20234;-83
2021/12/31 09:28:17;;;;;;;1.83;1.63;;;;;;;8.09;100.00;96143.59;6122738;23;20160;-83
2021/12/31 09:30:43;;;;;;;3.20;1.90;;;;;;;8.15;100.00;96137.13;6124399;23;20649;-83
2021/12/31 09:33:09;;;;;;;3.17;1.60;;;;;;;8.10;100.00;96141.81;6095227;23;20299;-83
2021/12/31 09:35:34;;;;;;;3.10;1.73;;;;;;;8.13;100.00;96137.25;6097870;23;20168;-83
2021/12/31 09:38:00;;;;;;;2.10;1.70;;;;;;;8.29;100.00;96149.81;6123802;23;20167;-83
2021/12/31 09:40:26;;;;;;;2.03;1.20;;;;;;;8.31;100.00;96147.94;6098194;23;20166;-83
2021/12/31 09:43:01;;;;;;;1.73;1.63;;;;;;;8.38;100.00;96164.66;6097127;23;20258;-83
2021/12/31 09:45:30;;;;;;;1.83;1.57;;;;;;;8.42;100.00;96160.09;6097935;23;20163;-82
2021/12/31 09:47:59;;;;;;;3.07;1.50;;;;;;;8.48;100.00;96160.44;6097816;23;20512;-83
2021/12/31 09:50:27;;;;;;;2.30;1.53;;;;;;;8.58;100.00;96165.72;6122020;23;20167;-83
2021/12/31 09:52:54;;;;;;;2.83;1.30;;;;;;;8.70;100.00;96162.16;6097270;23;20219;-83
2021/12/31 09:55:52;;;;;;;1.77;1.60;;;;;;;8.73;100.00;96164.50;6097931;23;20510;-83
2021/12/31 09:58:22;;;;;;;2.17;1.50;;;;;;;8.78;100.00;96157.19;6010335;23;20189;-83
2021/12/31 10:00:49;;;;;;;2.33;1.40;;;;;;;8.73;100.00;96154.13;6033777;23;20536;-83
2021/12/31 10:03:17;;;;;;;1.60;1.50;;;;;;;8.86;100.00;96153.19;6009473;23;20253;-83
2021/12/31 10:05:48;;;;;;;2.27;1.60;;;;;;;8.95;99.58;96147.25;5986854;23;20435;-82
2021/12/31 10:08:23;;;;;;;3.30;1.30;;;;;;;9.02;99.71;96153.59;5987158;23;20272;-83
2021/12/31 10:11:10;;;;;;;1.40;1.20;;;;;;;9.09;99.01;96165.91;6014303;23;20157;-83
2021/12/31 10:13:39;;;;;;;2.23;1.40;;;;;;;9.17;99.20;96159.28;6039279;23;20170;-84
2021/12/31 10:16:05;;;;;;;1.70;1.57;;;;;;;9.23;98.56;96162.22;6037947;23;20174;-84
2021/12/31 10:18:35;;;;;;;2.07;1.87;;;;;;;9.35;98.30;96166.41;6015120;23;20158;-84
2021/12/31 10:21:02;;;;;;;3.27;1.67;;;;;;;9.43;98.21;96150.22;5991743;23;20233;-84
2021/12/31 10:23:27;;;;;;;2.57;1.60;;;;;;;9.54;98.06;96150.19;6014240;23;20522;-84
2021/12/31 10:26:10;;;;;;;2.03;1.50;;;;;;;9.67;97.21;96144.78;6014745;23;20191;-84
2021/12/31 10:28:35;;;;;;;2.63;1.50;;;;;;;9.66;97.06;96140.56;5990767;23;20173;-84
2021/12/31 10:31:13;;;;;;;2.00;1.60;;;;;;;9.80;96.17;96140.22;6015081;23;20170;-84
2021/12/31 10:33:41;;;;;;;1.87;1.67;;;;;;;9.85;95.74;96126.88;6037111;23;20168;-84
2021/12/31 10:36:06;;;;;;;1.97;1.77;;;;;;;9.82;95.47;96120.19;6072085;23;20533;-83
2021/12/31 10:38:36;;;;;;;3.30;1.90;;;;;;;9.84;94.91;96125.22;6072669;23;20168;-84
2021/12/31 10:41:03;;;;;;;3.60;2.17;;;;;;;9.66;95.11;96127.59;6048848;23;20180;-84
2021/12/31 10:43:29;;;;;;;2.13;1.50;;;;;;;9.70;94.94;96128.97;6072046;23;20189;-84
2021/12/31 10:46:08;;;;;;;3.17;1.77;;;;;;;9.78;95.21;96130.91;6048392;23;20209;-83
2021/12/31 10:48:38;;;;;;;1.70;1.50;;;;;;;9.59;95.33;96126.44;6072531;23;20160;-83
2021/12/31 10:51:03;;;;;;;2.33;1.70;;;;;;;9.64;95.47;96119.94;6048080;23;20161;-83
2021/12/31 10:53:36;;;;;;;1.70;1.60;;;;;;;9.77;94.55;96111.13;6071343;23;20160;-84
2021/12/31 10:56:12;;;;;;;3.00;1.30;;;;;;;9.74;94.56;96119.19;6072250;23;20251;-84
2021/12/31 10:58:46;;;;;;;2.13;1.50;;;;;;;9.64;94.72;96121.72;6071918;23;20583;-83
2021/12/31 11:01:15;;;;;;;2.27;1.67;;;;;;;9.61;94.36;96112.41;6077592;23;20637;-83
2021/12/31 11:03:41;;;;;;;1.50;1.40;;;;;;;9.60;95.17;96107.34;6095814;23;20156;-84
2021/12/31 11:06:07;;;;;;;2.13;1.60;;;;;;;9.52;95.52;96100.19;6120497;23;20177;-83
2021/12/31 11:08:34;;;;;;;3.17;1.90;;;;;;;9.58;95.81;96089.34;6120070;23;20188;-83
2021/12/31 11:11:01;;;;;;;1.73;1.60;;;;;;;9.67;95.25;96097.28;6119792;23;20189;-84
2021/12/31 11:13:28;;;;;;;1.60;1.50;;;;;;;9.72;95.23;96092.53;6094480;23;20691;-83
2021/12/31 11:15:55;;;;;;;1.10;1.00;;;;;;;9.78;95.41;96087.66;6095292;23;20180;-84
2021/12/31 11:18:23;;;;;;;1.93;1.40;;;;;;;9.70;94.57;96095.25;6095413;23;20167;-83
2021/12/31 11:20:49;;;;;;;1.40;1.30;;;;;;;9.78;94.80;96094.63;6119518;23;20179;-84
2021/12/31 11:23:15;;;;;;;1.30;1.20;;;;;;;9.77;94.44;96086.00;6093838;23;20221;-84
2021/12/31 11:25:59;;;;;;;1.83;1.43;;;;;;;9.85;94.19;96086.19;6070615;23;20181;-83
2021/12/31 11:28:33;;;;;;;2.17;1.47;;;;;;;9.78;93.85;96079.06;6119098;23;20157;-84
2021/12/31 11:31:19;;;;;;;2.00;1.20;;;;;;;9.93;93.38;96073.38;6094698;23;20156;-83
2021/12/31 11:33:46;;;;;;;1.33;1.23;;;;;;;9.84;93.37;96073.34;6092098;23;20164;-84
2021/12/31 11:36:12;;;;;;;1.33;1.23;;;;;;;9.97;93.02;96068.75;6118916;23;20200;-83
2021/12/31 11:38:38;;;;;;;2.13;1.20;;;;;;;9.94;93.21;96069.84;6094271;23;20501;-83
2021/12/31 11:41:04;;;;;;;1.23;1.10;;;;;;;10.01;93.74;96075.34;6118721;23;20763;-83